Time;durP1;ratioP1;P1;durP2;ratioP2;P2;SDS_P1;SDS_P2;PMS_P1;PMS_P2;Temp;Humidity;BMP_temperature;BMP_pressure;BME280_temperature;BME280_humidity;BME280_pressure;Samples;Min_cycle;Max_cycle;Signal;HPM_P1;HPM_P2
2023/05/31 00:02:31;;;;;;;8.20;4.38;;;;;;;12.57;100.00;102400.06;6226438;28;20045;-72
2023/05/31 00:05:32;;;;;;;12.52;4.85;;;;;;;12.57;100.00;102405.34;6226993;28;20052;-72
2023/05/31 00:08:34;;;;;;;9.15;4.10;;;;;;;12.53;100.00;102395.81;6218081;28;20056;-72
2023/05/31 00:11:35;;;;;;;7.30;3.92;;;;;;;12.43;100.00;102396.13;6226101;28;20347;-72
2023/05/31 00:14:36;;;;;;;8.23;3.33;;;;;;;12.42;100.00;102404.97;6226345;28;20046;-72
2023/05/31 00:17:39;;;;;;;8.80;4.07;;;;;;;12.42;100.00;102398.84;6226632;28;20366;-71
2023/05/31 00:20:40;;;;;;;13.40;3.95;;;;;;;12.39;100.00;102402.44;6225927;28;20045;-72
2023/05/31 00:23:41;;;;;;;7.22;4.03;;;;;;;12.41;100.00;102407.66;6223683;28;20463;-72
2023/05/31 00:26:44;;;;;;;10.35;4.90;;;;;;;12.38;100.00;102411.25;6216444;28;20047;-72
2023/05/31 00:29:45;;;;;;;9.75;4.18;;;;;;;12.38;100.00;102407.75;6219766;28;20350;-72
2023/05/31 00:32:48;;;;;;;6.85;4.07;;;;;;;12.42;100.00;102404.97;6221647;28;20046;-72
2023/05/31 00:35:49;;;;;;;12.43;4.65;;;;;;;12.40;100.00;102411.22;6202016;28;20373;-72
2023/05/31 00:38:50;;;;;;;12.48;3.53;;;;;;;12.42;100.00;102412.03;6201462;28;20057;-72
2023/05/31 00:41:52;;;;;;;8.98;4.03;;;;;;;12.39;100.00;102418.25;6201892;28;20046;-72
2023/05/31 00:44:53;;;;;;;8.73;4.78;;;;;;;12.31;100.00;102420.31;6201816;28;20361;-72
2023/05/31 00:47:56;;;;;;;7.00;3.90;;;;;;;12.34;100.00;102416.69;6201758;28;20046;-72
2023/05/31 00:50:58;;;;;;;9.23;4.90;;;;;;;12.27;100.00;102413.41;6200976;28;20410;-72
2023/05/31 00:54:01;;;;;;;14.82;4.50;;;;;;;12.28;100.00;102415.13;6201629;28;20046;-72
2023/05/31 00:57:02;;;;;;;13.05;4.93;;;;;;;12.25;100.00;102420.50;6206174;28;20042;-72
2023/05/31 01:00:05;;;;;;;8.07;4.68;;;;;;;12.28;100.00;102422.19;6225266;28;20042;-72
2023/05/31 01:03:09;;;;;;;7.18;3.90;;;;;;;12.18;100.00;102419.00;6218205;28;20045;-72
2023/05/31 01:06:11;;;;;;;10.80;4.47;;;;;;;12.06;100.00;102419.38;6225835;28;20056;-72
2023/05/31 01:09:12;;;;;;;8.90;4.53;;;;;;;11.96;100.00;102416.19;6225394;28;20053;-72
2023/05/31 01:12:21;;;;;;;8.35;4.38;;;;;;;11.95;100.00;102408.34;6225583;28;20041;-72
2023/05/31 01:15:25;;;;;;;11.88;3.75;;;;;;;11.99;100.00;102412.56;6225935;28;20052;-72
2023/05/31 01:18:32;;;;;;;8.75;3.95;;;;;;;11.92;100.00;102410.16;6225738;28;20041;-72
2023/05/31 01:21:51;;;;;;;13.73;4.65;;;;;;;11.85;100.00;102415.66;6225012;28;20052;-72
2023/05/31 01:25:00;;;;;;;7.93;3.87;;;;;;;11.85;100.00;102408.63;6225704;28;20060;-72
2023/05/31 01:28:06;;;;;;;13.27;4.85;;;;;;;11.86;100.00;102401.59;6225848;28;20049;-72
2023/05/31 01:31:09;;;;;;;15.15;5.18;;;;;;;11.88;100.00;102411.16;6224958;28;20045;-72
2023/05/31 01:34:11;;;;;;;8.75;4.10;;;;;;;11.93;100.00;102409.25;6221279;28;20446;-72
2023/05/31 01:37:13;;;;;;;13.07;5.10;;;;;;;11.95;100.00;102403.94;6217517;28;20047;-72
2023/05/31 01:40:17;;;;;;;10.73;4.72;;;;;;;11.93;100.00;102411.88;6216648;28;20073;-72
2023/05/31 01:43:20;;;;;;;11.65;4.85;;;;;;;11.94;100.00;102410.09;6225334;28;20377;-72
2023/05/31 01:46:22;;;;;;;9.25;4.40;;;;;;;11.93;100.00;102406.59;6225409;28;20049;-72
2023/05/31 01:49:24;;;;;;;12.52;4.50;;;;;;;11.91;100.00;102404.94;6218659;28;20442;-72
2023/05/31 01:52:26;;;;;;;15.10;5.47;;;;;;;11.85;100.00;102399.84;6225143;28;20041;-72
2023/05/31 01:55:28;;;;;;;12.38;4.95;;;;;;;11.78;100.00;102400.94;6225189;28;20050;-72
2023/05/31 01:58:32;;;;;;;12.27;4.40;;;;;;;11.79;100.00;102400.88;6216240;28;20184;-72
2023/05/31 02:01:33;;;;;;;11.57;4.78;;;;;;;11.82;100.00;102400.84;6209252;28;20111;-72
2023/05/31 02:04:34;;;;;;;9.98;4.18;;;;;;;11.78;100.00;102387.78;6207598;28;20053;-72
2023/05/31 02:07:36;;;;;;;9.13;4.20;;;;;;;11.74;100.00;102386.16;6201290;28;20050;-72
2023/05/31 02:10:37;;;;;;;10.05;4.75;;;;;;;11.64;100.00;102393.47;6200213;28;20452;-72
2023/05/31 02:13:40;;;;;;;12.05;5.00;;;;;;;11.61;100.00;102390.94;6200980;28;20045;-72
2023/05/31 02:16:42;;;;;;;9.30;4.25;;;;;;;11.59;100.00;102400.66;6200834;28;20332;-72
2023/05/31 02:19:46;;;;;;;11.02;4.15;;;;;;;11.54;100.00;102387.66;6199904;28;20051;-72
2023/05/31 02:22:48;;;;;;;7.68;3.45;;;;;;;11.50;100.00;102401.81;6200701;28;20050;-72
2023/05/31 02:25:50;;;;;;;8.27;3.80;;;;;;;11.50;100.00;102393.91;6204192;28;20439;-72
2023/05/31 02:28:53;;;;;;;11.57;4.72;;;;;;;11.48;100.00;102387.81;6204713;28;20063;-72
2023/05/31 02:31:54;;;;;;;10.73;4.55;;;;;;;11.51;100.00;102397.41;6205044;28;20049;-72
2023/05/31 02:34:55;;;;;;;9.57;4.32;;;;;;;11.42;100.00;102393.28;6216335;28;20340;-72
2023/05/31 02:37:57;;;;;;;12.25;5.20;;;;;;;11.38;100.00;102384.59;6229062;28;20052;-72
2023/05/31 02:40:58;;;;;;;18.25;4.70;;;;;;;11.38;100.00;102387.25;6228537;28;20450;-72
2023/05/31 02:44:01;;;;;;;9.50;4.40;;;;;;;11.47;100.00;102393.13;6221035;28;20047;-72
2023/05/31 02:47:02;;;;;;;10.73;3.97;;;;;;;11.44;100.00;102388.81;6224997;28;20053;-72
2023/05/31 02:50:04;;;;;;;7.47;4.10;;;;;;;11.32;100.00;102397.09;6223824;28;20054;-72
2023/05/31 02:53:05;;;;;;;10.55;4.28;;;;;;;11.26;100.00;102387.59;6217278;28;20434;-72
2023/05/31 02:56:08;;;;;;;8.73;3.90;;;;;;;11.20;100.00;102385.16;6204033;28;20453;-72
2023/05/31 02:59:11;;;;;;;8.73;4.22;;;;;;;11.17;100.00;102394.03;6204093;28;20511;-72
2023/05/31 03:02:12;;;;;;;7.22;3.97;;;;;;;11.14;100.00;102396.72;6204505;28;20053;-72
2023/05/31 03:05:13;;;;;;;13.57;5.50;;;;;;;11.14;100.00;102388.84;6209885;28;20089;-72
2023/05/31 03:08:15;;;;;;;8.90;4.55;;;;;;;11.16;100.00;102387.00;6228417;28;20042;-72
2023/05/31 03:11:16;;;;;;;8.77;4.97;;;;;;;11.12;100.00;102384.50;6227942;28;20053;-72
2023/05/31 03:14:19;;;;;;;9.90;4.25;;;;;;;11.09;100.00;102380.22;6224490;28;20053;-72
2023/05/31 03:17:20;;;;;;;11.93;4.55;;;;;;;11.09;100.00;102382.84;6228096;28;20042;-72
2023/05/31 03:20:22;;;;;;;12.82;4.72;;;;;;;10.99;100.00;102386.66;6227586;28;20053;-72
2023/05/31 03:23:23;;;;;;;12.15;4.55;;;;;;;10.91;100.00;102386.88;6208469;28;20451;-72
2023/05/31 03:26:25;;;;;;;10.85;5.07;;;;;;;10.92;100.00;102385.97;6226498;28;20049;-72
2023/05/31 03:29:28;;;;;;;15.60;5.47;;;;;;;10.98;100.00;102387.53;6219128;28;20625;-72
2023/05/31 03:32:29;;;;;;;9.85;4.28;;;;;;;10.94;100.00;102383.28;6220677;28;20046;-72
2023/05/31 03:35:31;;;;;;;11.10;5.60;;;;;;;10.99;100.00;102385.78;6210667;28;20050;-72
2023/05/31 03:38:32;;;;;;;8.25;3.88;;;;;;;10.93;100.00;102382.41;6216139;28;20451;-72
2023/05/31 03:41:33;;;;;;;9.57;4.18;;;;;;;10.96;100.00;102393.78;6226839;28;20046;-72
2023/05/31 03:44:36;;;;;;;7.60;3.90;;;;;;;10.92;100.00;102387.72;6227723;28;20042;-72
2023/05/31 03:47:37;;;;;;;14.13;4.30;;;;;;;10.88;100.00;102388.72;6223419;28;20049;-72
2023/05/31 03:50:40;;;;;;;10.23;4.13;;;;;;;10.89;100.00;102388.66;6226521;28;20362;-72
2023/05/31 03:53:41;;;;;;;11.35;4.63;;;;;;;10.88;100.00;102381.69;6225564;28;20052;-72
2023/05/31 03:56:42;;;;;;;11.13;4.20;;;;;;;10.89;100.00;102386.03;6206308;28;20180;-72
2023/05/31 03:59:45;;;;;;;15.18;5.32;;;;;;;10.89;100.00;102382.53;6207085;28;20049;-72
2023/05/31 04:02:46;;;;;;;9.48;4.18;;;;;;;10.85;100.00;102381.75;6204867;28;20050;-72
2023/05/31 04:05:48;;;;;;;8.32;4.57;;;;;;;10.88;100.00;102380.84;6201834;28;20488;-72
2023/05/31 04:08:49;;;;;;;9.80;4.90;;;;;;;10.88;100.00;102380.84;6203576;28;20087;-72
2023/05/31 04:11:50;;;;;;;9.63;4.05;;;;;;;10.88;100.00;102380.84;6186890;28;20053;-72
2023/05/31 04:14:53;;;;;;;9.57;4.65;;;;;;;10.88;100.00;102386.09;6206177;28;20598;-72
2023/05/31 04:17:55;;;;;;;7.88;4.30;;;;;;;10.88;100.00;102386.94;6195395;28;20049;-72
2023/05/31 04:20:56;;;;;;;8.00;3.97;;;;;;;10.91;100.00;102384.25;6180139;28;20654;-72
2023/05/31 04:23:57;;;;;;;14.57;5.13;;;;;;;10.92;100.00;102393.00;6202048;28;20038;-72
2023/05/31 04:26:59;;;;;;;10.13;5.20;;;;;;;10.95;100.00;102389.44;6206041;28;20057;-72
2023/05/31 04:30:02;;;;;;;9.05;4.10;;;;;;;10.97;100.00;102384.97;6205826;28;20042;-72
2023/05/31 04:33:04;;;;;;;6.70;3.55;;;;;;;10.99;100.00;102396.28;6187252;28;20045;-72
2023/05/31 04:36:08;;;;;;;11.15;4.38;;;;;;;11.00;100.00;102395.41;6184884;28;20057;-72
2023/05/31 04:39:14;;;;;;;12.93;4.35;;;;;;;10.98;100.00;102397.22;6184270;28;20053;-72
2023/05/31 04:42:15;;;;;;;7.97;4.00;;;;;;;10.92;100.00;102395.63;6183849;28;20038;-72
2023/05/31 04:45:18;;;;;;;7.97;4.10;;;;;;;10.88;100.00;102394.84;6185876;28;20262;-72
2023/05/31 04:48:20;;;;;;;10.27;4.15;;;;;;;10.90;100.00;102397.41;6183676;28;20050;-72
2023/05/31 04:51:21;;;;;;;12.38;5.20;;;;;;;10.92;100.00;102400.88;6203893;28;20625;-72
2023/05/31 04:54:23;;;;;;;10.27;4.25;;;;;;;10.89;100.00;102391.28;6211703;28;20354;-72
2023/05/31 04:57:26;;;;;;;9.23;4.85;;;;;;;10.88;100.00;102402.72;6226270;28;20052;-72
2023/05/31 05:00:29;;;;;;;10.18;5.35;;;;;;;10.85;100.00;102409.84;6225386;28;20053;-72
2023/05/31 05:03:31;;;;;;;7.00;3.58;;;;;;;10.89;100.00;102400.97;6216703;28;20100;-72
2023/05/31 05:06:33;;;;;;;11.55;4.10;;;;;;;10.93;100.00;102406.09;6193758;28;20053;-72
2023/05/31 05:09:34;;;;;;;9.80;3.97;;;;;;;11.01;100.00;102412.91;6209244;28;20461;-71
2023/05/31 05:12:36;;;;;;;9.18;4.18;;;;;;;11.01;100.00;102410.28;6225741;28;20049;-72
2023/05/31 05:15:38;;;;;;;12.95;4.28;;;;;;;10.99;100.00;102412.06;6225713;28;20050;-72
2023/05/31 05:18:41;;;;;;;10.30;4.22;;;;;;;11.05;100.00;102409.28;6225906;28;20048;-71
2023/05/31 05:21:42;;;;;;;13.27;4.22;;;;;;;11.00;100.00;102409.44;6224981;28;20048;-71
2023/05/31 05:24:43;;;;;;;10.98;4.20;;;;;;;11.01;100.00;102413.78;6225812;28;20060;-71
2023/05/31 05:27:45;;;;;;;11.27;4.95;;;;;;;11.11;100.00;102417.00;6225624;28;20431;-71
2023/05/31 05:30:47;;;;;;;12.85;5.13;;;;;;;11.08;100.00;102404.81;6225149;28;20053;-71
2023/05/31 05:33:49;;;;;;;8.63;4.20;;;;;;;11.14;100.00;102403.78;6221538;28;20046;-71
2023/05/31 05:36:51;;;;;;;7.35;3.83;;;;;;;11.20;100.00;102415.88;6225678;28;20058;-71
2023/05/31 05:39:53;;;;;;;12.27;4.60;;;;;;;11.23;100.00;102414.03;6221355;28;20049;-71
2023/05/31 05:42:54;;;;;;;10.20;4.55;;;;;;;11.26;100.00;102421.81;6225323;28;20045;-71
2023/05/31 05:45:57;;;;;;;10.85;4.03;;;;;;;11.35;100.00;102418.91;6225550;28;20046;-71
2023/05/31 05:48:58;;;;;;;8.80;3.83;;;;;;;11.40;100.00;102414.41;6215256;28;20049;-71
2023/05/31 05:52:00;;;;;;;9.95;4.13;;;;;;;11.42;100.00;102403.81;6225469;28;20053;-71
2023/05/31 05:55:01;;;;;;;8.85;4.28;;;;;;;11.49;100.00;102405.34;6225064;28;20425;-72
2023/05/31 05:58:02;;;;;;;10.32;3.63;;;;;;;11.46;100.00;102405.44;6225420;28;20054;-71
2023/05/31 06:01:05;;;;;;;9.57;4.05;;;;;;;11.51;100.00;102408.78;6228776;28;20041;-71
2023/05/31 06:04:06;;;;;;;7.40;3.65;;;;;;;11.53;100.00;102406.97;6211060;28;20355;-71
2023/05/31 06:07:08;;;;;;;9.73;4.10;;;;;;;11.57;100.00;102410.38;6206827;28;20057;-72
2023/05/31 06:10:10;;;;;;;10.30;4.68;;;;;;;11.57;100.00;102416.50;6206041;28;20046;-71
2023/05/31 06:13:12;;;;;;;7.38;3.65;;;;;;;11.64;100.00;102410.13;6204906;28;20447;-72
2023/05/31 06:16:15;;;;;;;12.07;4.18;;;;;;;11.66;100.00;102410.94;6206768;28;20062;-71
2023/05/31 06:19:16;;;;;;;15.43;3.70;;;;;;;11.79;100.00;102421.97;6206036;28;20057;-71
2023/05/31 06:22:18;;;;;;;7.32;3.80;;;;;;;11.79;100.00;102413.19;6209227;28;20057;-71
2023/05/31 06:25:20;;;;;;;7.07;3.60;;;;;;;11.85;100.00;102418.28;6203937;28;20057;-72
2023/05/31 06:28:21;;;;;;;11.63;3.72;;;;;;;11.89;100.00;102418.16;6206291;28;20181;-71
2023/05/31 06:31:24;;;;;;;12.05;4.35;;;;;;;11.92;100.00;102412.78;6205769;28;20042;-71
2023/05/31 06:34:25;;;;;;;9.80;3.72;;;;;;;12.00;100.00;102416.97;6205982;28;20057;-71
2023/05/31 06:37:27;;;;;;;8.40;4.30;;;;;;;12.04;100.00;102414.19;6206165;28;20354;-71
2023/05/31 06:40:28;;;;;;;7.25;3.42;;;;;;;12.13;100.00;102413.03;6205683;28;20049;-71
2023/05/31 06:43:29;;;;;;;6.97;3.05;;;;;;;12.22;100.00;102411.81;6205852;28;20406;-71
2023/05/31 06:46:32;;;;;;;7.53;2.78;;;;;;;12.27;100.00;102400.22;6206106;28;20050;-71
2023/05/31 06:49:33;;;;;;;6.22;3.40;;;;;;;12.34;100.00;102404.38;6203781;28;20053;-71
2023/05/31 06:52:35;;;;;;;6.78;3.10;;;;;;;12.39;100.00;102399.78;6208966;28;20050;-71
2023/05/31 06:55:36;;;;;;;6.78;3.38;;;;;;;12.44;100.00;102403.16;6228556;28;20346;-71
2023/05/31 06:58:38;;;;;;;10.82;3.90;;;;;;;12.53;100.00;102401.94;6220562;28;20467;-71
2023/05/31 07:01:40;;;;;;;7.97;3.80;;;;;;;12.63;100.00;102399.88;6209286;28;20387;-72
2023/05/31 07:04:41;;;;;;;12.23;3.08;;;;;;;12.79;100.00;102392.25;6226152;28;20049;-72
2023/05/31 07:07:43;;;;;;;10.20;3.88;;;;;;;12.88;100.00;102387.50;6227828;28;20056;-72
2023/05/31 07:10:45;;;;;;;8.30;3.42;;;;;;;12.94;100.00;102386.41;6210059;28;20383;-71
2023/05/31 07:13:46;;;;;;;7.90;3.30;;;;;;;13.04;100.00;102384.31;6212332;28;20341;-71
2023/05/31 07:16:49;;;;;;;7.43;3.28;;;;;;;13.08;100.00;102385.91;6212263;28;20136;-71
2023/05/31 07:19:50;;;;;;;5.25;2.97;;;;;;;13.17;100.00;102390.81;6227515;28;20050;-71
2023/05/31 07:22:52;;;;;;;8.57;3.03;;;;;;;13.23;100.00;102397.72;6209511;28;20618;-72
2023/05/31 07:25:53;;;;;;;6.20;3.33;;;;;;;13.30;100.00;102389.47;6202905;28;20050;-72
2023/05/31 07:28:55;;;;;;;10.07;2.85;;;;;;;13.36;100.00;102386.63;6201068;28;20366;-72
2023/05/31 07:31:58;;;;;;;7.07;3.17;;;;;;;13.50;100.00;102393.16;6215337;28;20101;-72
2023/05/31 07:35:00;;;;;;;4.93;2.50;;;;;;;13.58;100.00;102385.75;6206901;28;20049;-73
2023/05/31 07:38:01;;;;;;;7.28;3.08;;;;;;;13.58;100.00;102388.41;6204925;28;20092;-72
2023/05/31 07:41:02;;;;;;;8.15;3.53;;;;;;;13.64;100.00;102385.53;6218596;28;20050;-73
2023/05/31 07:44:05;;;;;;;6.57;3.05;;;;;;;13.77;100.00;102388.56;6211467;28;20053;-72
2023/05/31 07:47:08;;;;;;;7.28;3.13;;;;;;;13.83;100.00;102380.38;6202328;28;20534;-72
2023/05/31 07:50:10;;;;;;;5.10;2.65;;;;;;;13.88;100.00;102378.38;6220452;28;20050;-72
2023/05/31 07:53:11;;;;;;;6.18;2.90;;;;;;;13.95;100.00;102386.00;6227290;28;20053;-72
2023/05/31 07:56:12;;;;;;;8.25;3.40;;;;;;;14.07;100.00;102383.78;6227107;28;20233;-73
2023/05/31 07:59:16;;;;;;;3.22;2.13;;;;;;;14.19;100.00;102385.91;6226471;28;20049;-73
2023/05/31 08:02:19;;;;;;;8.68;2.67;;;;;;;14.19;100.00;102386.75;6217086;28;20053;-72
2023/05/31 08:05:20;;;;;;;8.02;3.08;;;;;;;14.33;100.00;102385.31;6204906;28;20046;-73
2023/05/31 08:08:22;;;;;;;4.28;1.85;;;;;;;14.33;100.00;102380.88;6201286;28;20057;-73
2023/05/31 08:11:23;;;;;;;7.70;2.33;;;;;;;14.43;100.00;102374.28;6218502;28;20045;-73
2023/05/31 08:14:24;;;;;;;8.32;3.17;;;;;;;14.46;100.00;102376.78;6219630;28;20355;-72
2023/05/31 08:17:27;;;;;;;9.85;3.08;;;;;;;14.71;100.00;102368.66;6214127;28;20053;-72
2023/05/31 08:20:29;;;;;;;9.82;3.92;;;;;;;14.91;100.00;102366.91;6216015;28;20438;-73
2023/05/31 08:23:30;;;;;;;9.90;4.40;;;;;;;15.06;100.00;102360.91;6222429;28;20038;-73
2023/05/31 08:26:32;;;;;;;7.00;2.45;;;;;;;15.14;100.00;102371.16;6226612;28;20097;-73
2023/05/31 08:29:34;;;;;;;5.22;2.72;;;;;;;15.08;100.00;102359.06;6203564;28;20046;-73
2023/05/31 08:32:37;;;;;;;5.65;1.88;;;;;;;15.09;100.00;102359.91;6213229;28;20049;-73
2023/05/31 08:35:39;;;;;;;4.13;2.00;;;;;;;15.08;100.00;102355.53;6215382;28;20047;-72
2023/05/31 08:38:40;;;;;;;4.75;1.98;;;;;;;15.21;100.00;102352.25;6215776;28;20126;-73
2023/05/31 08:41:49;;;;;;;4.40;2.13;;;;;;;15.33;100.00;102347.31;6223504;28;20066;-73
2023/05/31 08:44:51;;;;;;;3.92;1.60;;;;;;;15.34;100.00;102343.72;6226269;28;20046;-72
2023/05/31 08:48:05;;;;;;;3.03;1.67;;;;;;;15.50;100.00;102347.34;6222227;28;20066;-73
2023/05/31 08:51:08;;;;;;;5.00;1.58;;;;;;;15.57;100.00;102340.81;6204562;28;20049;-73
2023/05/31 08:54:10;;;;;;;4.75;1.80;;;;;;;15.57;100.00;102343.44;6217933;28;20443;-70
2023/05/31 08:57:13;;;;;;;4.40;1.55;;;;;;;15.57;100.00;102337.31;6211493;28;20133;-73
2023/05/31 09:00:15;;;;;;;9.32;2.55;;;;;;;15.71;100.00;102334.84;6221856;28;20054;-74
2023/05/31 09:03:19;;;;;;;9.63;2.20;;;;;;;15.80;100.00;102334.41;6223916;28;20057;-73
2023/05/31 09:06:20;;;;;;;2.70;1.17;;;;;;;15.82;100.00;102337.84;6225963;28;20457;-73
2023/05/31 09:09:22;;;;;;;2.03;1.20;;;;;;;15.81;100.00;102333.50;6206216;28;20046;-73
2023/05/31 09:12:23;;;;;;;5.07;1.30;;;;;;;15.93;100.00;102327.56;6223384;28;20457;-74
2023/05/31 09:15:27;;;;;;;2.35;1.08;;;;;;;16.22;100.00;102331.38;6218898;28;20042;-74
2023/05/31 09:18:37;;;;;;;3.10;1.55;;;;;;;16.31;100.00;102332.69;6204604;28;20121;-74
2023/05/31 09:21:40;;;;;;;6.38;1.90;;;;;;;16.32;100.00;102330.91;6202698;28;20038;-73
2023/05/31 09:24:50;;;;;;;3.40;1.20;;;;;;;16.42;100.00;102330.34;6206068;28;20358;-73
2023/05/31 09:27:51;;;;;;;3.17;1.95;;;;;;;16.51;100.00;102320.19;6200977;28;20054;-73
2023/05/31 09:31:04;;;;;;;5.40;1.85;;;;;;;16.68;100.00;102321.00;6203036;28;20058;-74
2023/05/31 09:34:24;;;;;;;5.20;1.48;;;;;;;16.67;100.00;102321.94;6208379;28;20602;-74
2023/05/31 09:37:25;;;;;;;3.33;1.40;;;;;;;16.80;100.00;102323.94;6207961;28;20051;-74
2023/05/31 09:40:29;;;;;;;4.78;1.38;;;;;;;16.85;100.00;102321.88;6210131;28;20432;-74
2023/05/31 09:43:31;;;;;;;5.18;1.90;;;;;;;16.97;100.00;102310.59;6210757;28;20053;-74
2023/05/31 09:46:34;;;;;;;3.35;1.33;;;;;;;17.05;100.00;102304.88;6206672;28;20053;-74
2023/05/31 09:49:37;;;;;;;3.50;1.40;;;;;;;17.22;100.00;102315.44;6210097;28;20050;-74
2023/05/31 09:52:39;;;;;;;1.85;1.75;;;;;;;17.45;100.00;102311.47;6210296;28;20054;-75
2023/05/31 09:55:41;;;;;;;2.17;1.10;;;;;;;17.44;100.00;102310.59;6210757;28;20070;-75
2023/05/31 09:58:42;;;;;;;4.72;1.77;;;;;;;17.64;100.00;102306.78;6226330;28;20054;-74
2023/05/31 10:01:44;;;;;;;9.88;1.73;;;;;;;17.68;100.00;102305.66;6218297;28;20050;-74
2023/05/31 10:04:47;;;;;;;4.78;1.40;;;;;;;17.61;100.00;102300.78;6209030;28;20366;-74
2023/05/31 10:07:50;;;;;;;2.25;1.02;;;;;;;17.51;100.00;102303.13;6209245;28;20051;-74
2023/05/31 10:10:51;;;;;;;1.55;1.30;;;;;;;17.53;100.00;102292.38;6208557;28;20354;-74
2023/05/31 10:13:58;;;;;;;4.90;1.70;;;;;;;17.71;100.00;102296.63;6210668;28;20054;-75
2023/05/31 10:17:03;;;;;;;2.33;0.85;;;;;;;18.04;100.00;102296.50;6205579;28;20458;-74
2023/05/31 10:20:09;;;;;;;7.05;1.90;;;;;;;17.97;100.00;102287.16;6204876;28;20057;-74
2023/05/31 10:23:17;;;;;;;7.03;2.58;;;;;;;18.05;100.00;102281.38;6205182;28;20054;-74
2023/05/31 10:26:19;;;;;;;3.42;1.65;;;;;;;18.02;99.18;102270.91;6205111;28;20046;-74
2023/05/31 10:29:24;;;;;;;5.63;1.90;;;;;;;18.09;99.83;102280.25;6212288;28;20355;-75
2023/05/31 10:32:27;;;;;;;8.27;2.60;;;;;;;18.18;96.64;102274.38;6228468;28;20057;-74
2023/05/31 10:35:30;;;;;;;8.88;2.40;;;;;;;18.24;98.20;102274.84;6227549;28;20042;-75
2023/05/31 10:38:40;;;;;;;5.22;2.15;;;;;;;18.23;100.00;102270.47;6212895;28;20050;-74
2023/05/31 10:41:48;;;;;;;3.53;1.70;;;;;;;18.28;100.00;102269.34;6204563;28;20050;-74
2023/05/31 10:45:00;;;;;;;8.27;2.13;;;;;;;18.32;100.00;102269.06;6222264;28;20053;-74
2023/05/31 10:48:09;;;;;;;3.58;1.08;;;;;;;18.46;100.00;102265.53;6221338;28;20120;-75
2023/05/31 10:51:12;;;;;;;5.07;1.50;;;;;;;18.51;100.00;102263.44;6227961;28;20124;-75
2023/05/31 10:54:18;;;;;;;2.80;1.50;;;;;;;18.64;100.00;102251.06;6205872;28;20053;-74
2023/05/31 10:57:20;;;;;;;4.93;1.98;;;;;;;18.81;97.21;102247.38;6218310;28;20049;-75
2023/05/31 11:00:22;;;;;;;2.28;1.02;;;;;;;18.77;99.00;102250.31;6205421;28;20057;-74
2023/05/31 11:03:24;;;;;;;4.07;1.20;;;;;;;18.73;100.00;102239.84;6200108;28;20068;-74
2023/05/31 11:06:28;;;;;;;4.00;1.20;;;;;;;18.92;95.05;102246.66;6207585;28;20054;-74
2023/05/31 11:09:32;;;;;;;2.22;0.93;;;;;;;18.92;97.32;102244.00;6217239;28;20045;-75
2023/05/31 11:12:35;;;;;;;6.00;1.40;;;;;;;19.07;96.91;102247.47;6204500;28;20367;-74
2023/05/31 11:15:40;;;;;;;9.18;1.40;;;;;;;19.20;99.14;102238.56;6215623;28;20046;-74
2023/05/31 11:18:42;;;;;;;1.45;0.90;;;;;;;19.21;95.08;102234.97;6205310;28;20105;-74
2023/05/31 11:21:49;;;;;;;2.17;1.20;;;;;;;19.35;94.90;102236.72;6217798;28;20072;-74
2023/05/31 11:24:51;;;;;;;7.28;1.83;;;;;;;19.40;92.40;102234.59;6205944;28;20046;-74
2023/05/31 11:28:06;;;;;;;2.92;1.13;;;;;;;19.52;94.13;102240.91;6206877;28;20062;-74
2023/05/31 11:31:07;;;;;;;2.45;1.20;;;;;;;19.52;91.04;102225.75;6209161;28;20057;-74
2023/05/31 11:34:18;;;;;;;1.02;0.90;;;;;;;19.65;91.81;102222.28;6213909;28;20435;-75
2023/05/31 11:37:22;;;;;;;4.72;1.50;;;;;;;19.98;93.58;102219.13;6202298;28;20041;-75
2023/05/31 11:40:23;;;;;;;5.05;0.90;;;;;;;20.17;92.89;102214.22;6207833;28;20108;-74
2023/05/31 11:43:26;;;;;;;1.85;1.15;;;;;;;20.36;93.63;102211.09;6212224;28;20086;-74
2023/05/31 11:46:28;;;;;;;2.60;1.27;;;;;;;20.42;89.12;102207.97;6204157;28;20118;-75
2023/05/31 11:49:31;;;;;;;3.22;1.08;;;;;;;20.56;90.45;102204.34;6216536;28;20431;-74
2023/05/31 11:52:34;;;;;;;2.28;1.25;;;;;;;20.71;86.65;102205.91;6197209;28;20059;-75
2023/05/31 11:55:36;;;;;;;3.60;0.70;;;;;;;20.72;85.63;102202.28;6203952;28;20042;-74
2023/05/31 11:58:38;;;;;;;3.08;0.90;;;;;;;20.73;86.39;102201.28;6205286;28;20046;-74
2023/05/31 12:01:39;;;;;;;1.33;0.88;;;;;;;20.90;89.80;102197.41;6205810;28;20347;-74
2023/05/31 12:04:42;;;;;;;2.83;1.20;;;;;;;21.05;89.10;102197.22;6204076;28;20047;-74
2023/05/31 12:07:46;;;;;;;4.72;1.05;;;;;;;21.22;86.18;102194.13;6208278;28;20054;-74
2023/05/31 12:10:48;;;;;;;2.22;0.90;;;;;;;21.43;81.55;102186.31;6200906;28;20351;-74
2023/05/31 12:13:49;;;;;;;1.70;1.00;;;;;;;;;;6193819;28;20047;-72
2023/05/31 12:16:51;;;;;;;2.30;1.23;;;;;;;21.71;81.59;102179.69;6191298;28;20470;-73
2023/05/31 12:19:52;;;;;;;1.85;1.25;;;;;;;21.61;82.05;102176.88;6200107;28;20057;-72
2023/05/31 12:23:11;;;;;;;2.22;1.00;;;;;;;21.83;82.77;102175.22;6207760;28;20061;-73
2023/05/31 12:26:13;;;;;;;3.83;1.02;;;;;;;21.71;70.89;102175.22;6205096;28;20521;-73
2023/05/31 12:29:14;;;;;;;1.75;0.90;;;;;;;21.68;57.90;102169.25;6213280;28;20049;-73
2023/05/31 12:32:19;;;;;;;2.13;1.10;;;;;;;21.73;62.11;102167.06;6202880;28;20204;-73
2023/05/31 12:35:20;;;;;;;3.47;1.15;;;;;;;21.92;60.74;102166.47;6198357;28;20046;-73
2023/05/31 12:38:29;;;;;;;2.33;1.00;;;;;;;22.00;56.03;102156.00;6198951;28;20053;-74
2023/05/31 12:41:31;;;;;;;4.60;1.13;;;;;;;22.01;56.71;102155.88;6198472;28;20439;-74
2023/05/31 12:44:33;;;;;;;3.42;1.30;;;;;;;22.13;57.25;102155.94;6194220;28;20078;-74
2023/05/31 12:47:35;;;;;;;3.10;1.10;;;;;;;22.20;56.32;102147.25;6202188;28;20467;-74
2023/05/31 12:50:36;;;;;;;2.33;0.93;;;;;;;22.24;55.15;102147.88;6204262;28;20124;-75
2023/05/31 12:53:40;;;;;;;1.30;0.80;;;;;;;22.20;59.04;102144.56;6211602;28;20053;-74
2023/05/31 12:56:42;;;;;;;0.95;0.82;;;;;;;22.23;53.21;102135.47;6211014;28;20462;-74
2023/05/31 12:59:43;;;;;;;1.38;0.95;;;;;;;22.44;54.05;102140.91;6213959;28;20057;-74
2023/05/31 13:02:44;;;;;;;1.30;0.73;;;;;;;22.68;59.62;102138.91;6211081;28;20054;-74
2023/05/31 13:05:46;;;;;;;2.50;1.30;;;;;;;22.81;55.80;102135.19;6216276;28;20041;-74
2023/05/31 13:08:48;;;;;;;2.08;0.80;;;;;;;22.90;57.25;102126.44;6211142;28;20359;-73
2023/05/31 13:11:51;;;;;;;2.90;1.00;;;;;;;22.97;54.52;102130.28;6206989;28;20054;-73
2023/05/31 13:14:53;;;;;;;2.40;1.35;;;;;;;23.14;51.47;102126.19;6211785;28;20072;-73
2023/05/31 13:17:54;;;;;;;4.97;1.00;;;;;;;23.33;51.64;102118.25;6193608;28;20070;-73
2023/05/31 13:20:55;;;;;;;5.13;1.48;;;;;;;23.33;50.76;102123.63;6211700;28;20331;-74
2023/05/31 13:23:58;;;;;;;2.20;1.10;;;;;;;23.49;51.88;102115.13;6222502;28;20042;-73
2023/05/31 13:27:00;;;;;;;1.67;0.93;;;;;;;23.72;57.05;102113.16;6206649;28;20049;-74
2023/05/31 13:30:01;;;;;;;2.15;1.00;;;;;;;23.83;51.83;102110.38;6197900;28;20351;-74
2023/05/31 13:33:03;;;;;;;2.03;0.82;;;;;;;23.68;48.68;102111.72;6200413;28;20057;-74
2023/05/31 13:36:05;;;;;;;1.45;0.57;;;;;;;23.67;50.28;102110.03;6205854;28;20197;-74
2023/05/31 13:39:07;;;;;;;3.85;0.93;;;;;;;23.57;50.46;102099.19;6211470;28;20049;-74
2023/05/31 13:42:09;;;;;;;2.95;0.82;;;;;;;23.44;50.85;102093.22;6204551;28;20074;-73
2023/05/31 13:45:11;;;;;;;4.38;1.20;;;;;;;23.24;50.03;102100.28;6214297;28;20042;-74
2023/05/31 13:48:13;;;;;;;6.93;1.42;;;;;;;23.48;53.21;102091.94;6203261;28;20387;-73
2023/05/31 13:51:16;;;;;;;1.55;0.80;;;;;;;23.71;47.91;102092.63;6210046;28;20054;-74
2023/05/31 13:54:19;;;;;;;1.25;0.80;;;;;;;23.59;47.86;102091.88;6203551;28;20079;-74
2023/05/31 13:57:20;;;;;;;4.63;0.93;;;;;;;23.50;50.89;102076.56;6205825;28;20057;-74
2023/05/31 14:00:21;;;;;;;1.83;0.77;;;;;;;23.41;50.06;102083.56;6195902;28;20050;-74